Granby, Massachusetts
Current Conditions -  °F | °C
As of 2:58 PM on Tuesday 21 Oct 2014 (Local Time) from KCEF Reporting Station
Scattered Clouds Scattered Clouds  
Wind Chill: 62°   Ceiling: Unl
Heat Index: 62°   Visibility: 10mi
Dew Point: 49°   Wind: 8mph
Humidity: 63%   Direction: 10°N
Pressure: 29.88"   Gusts: NA
Location:  42.26°N, 72.53°W
Report Text: KCEF 211858Z 01007KT 10SM SCT050 SCT095 17/10 A2988 RMK AO2A SLP125 T01650095
Loading
Personal Weather Stations






























Interactive Weather Map
Tropical Storm Tracking
New forecast layout! Learn more

10-Day Weather Forecast

Advertisements
Track Severe Weather on mobile